createdAt,value
2018-02-10T00:01:23.881Z,82.09
2018-02-10T00:03:51.549Z,83.44
2018-02-10T00:06:19.110Z,83.61
2018-02-10T00:08:46.908Z,83.57
2018-02-10T00:11:14.493Z,83.54
2018-02-10T00:13:42.212Z,83.51
2018-02-10T00:16:09.773Z,83.22
2018-02-10T00:18:37.526Z,83.42
2018-02-10T00:21:05.075Z,83.61
2018-02-10T00:23:32.629Z,83.50
2018-02-10T00:26:00.425Z,83.48
2018-02-10T00:28:27.973Z,84.00
2018-02-10T00:30:55.545Z,84.51
2018-02-10T00:33:23.093Z,84.01
2018-02-10T00:35:50.697Z,83.73
2018-02-10T00:38:18.593Z,83.56
2018-02-10T00:40:46.186Z,83.33
2018-02-10T00:43:13.754Z,83.26
2018-02-10T00:45:41.479Z,82.60
2018-02-10T00:48:09.290Z,82.27
2018-02-10T00:50:37.115Z,83.11
2018-02-10T00:53:04.729Z,83.44
2018-02-10T00:55:32.336Z,83.49
2018-02-10T00:58:00.031Z,83.27
2018-02-10T01:00:27.598Z,83.32
2018-02-10T01:02:55.405Z,83.31
2018-02-10T01:05:23.139Z,83.37
2018-02-10T01:07:50.697Z,83.24
2018-02-10T01:10:18.561Z,83.27
2018-02-10T01:12:46.277Z,83.03
2018-02-10T01:15:13.834Z,82.97
2018-02-10T01:17:41.405Z,83.23
2018-02-10T01:20:08.957Z,84.15
2018-02-10T01:22:36.521Z,84.33
2018-02-10T01:25:04.096Z,84.22
2018-02-10T01:27:31.686Z,84.27
2018-02-10T01:29:59.233Z,84.75
2018-02-10T01:32:26.784Z,84.95
2018-02-10T01:34:54.349Z,85.68
2018-02-10T01:37:21.902Z,84.89
2018-02-10T01:39:49.654Z,84.09
2018-02-10T01:42:17.222Z,83.29
2018-02-10T01:44:44.825Z,82.99
2018-02-10T01:47:12.397Z,82.60
2018-02-10T01:49:39.934Z,82.86
2018-02-10T01:52:07.498Z,83.08
2018-02-10T01:54:35.280Z,83.70
2018-02-10T01:57:02.842Z,84.21
2018-02-10T01:59:30.394Z,85.10
2018-02-10T02:01:58.274Z,84.66
2018-02-10T02:04:26.015Z,84.38
2018-02-10T02:06:53.565Z,84.32
2018-02-10T02:09:21.157Z,84.77
2018-02-10T02:11:48.712Z,85.18
2018-02-10T02:14:16.521Z,85.17
2018-02-10T02:16:44.242Z,84.56
2018-02-10T02:19:11.865Z,84.03
2018-02-10T02:21:39.677Z,84.27
2018-02-10T02:24:07.235Z,84.74
2018-02-10T02:26:34.809Z,85.64
2018-02-10T02:29:02.366Z,85.24
2018-02-10T02:31:30.032Z,84.45
2018-02-10T02:33:57.598Z,83.54
2018-02-10T02:36:25.334Z,83.32
2018-02-10T02:38:52.887Z,82.96
2018-02-10T02:41:20.444Z,82.62
2018-02-10T02:43:48.238Z,82.68
2018-02-10T02:46:15.798Z,82.89
2018-02-10T02:48:43.366Z,83.52
2018-02-10T02:53:44.883Z,83.71
2018-02-10T02:56:12.434Z,83.71
2018-02-10T02:58:39.986Z,84.02
2018-02-10T03:01:07.784Z,84.12
2018-02-10T03:03:35.334Z,84.07
2018-02-10T03:06:03.119Z,83.96
2018-02-10T03:08:30.677Z,84.03
2018-02-10T03:10:58.493Z,84.06
2018-02-10T03:13:26.153Z,84.26
2018-02-10T03:15:53.882Z,84.18
2018-02-10T03:18:21.574Z,83.94
2018-02-10T03:20:49.143Z,83.74
2018-02-10T03:23:16.948Z,83.78
2018-02-10T03:25:44.505Z,83.80
2018-02-10T03:28:12.283Z,83.92
2018-02-10T03:30:39.979Z,83.84
2018-02-10T03:33:07.695Z,83.79
2018-02-10T03:35:36.117Z,83.87
2018-02-10T03:38:03.859Z,83.67
2018-02-10T03:40:31.557Z,83.56
2018-02-10T03:42:59.395Z,83.24
2018-02-10T03:45:27.101Z,82.78
2018-02-10T03:47:54.653Z,83.40
2018-02-10T03:50:22.201Z,83.39
2018-02-10T03:52:49.926Z,83.45
2018-02-10T03:55:17.478Z,83.50
2018-02-10T03:57:45.046Z,83.66
2018-02-10T04:00:12.597Z,84.08
2018-02-10T04:02:40.340Z,83.35
2018-02-10T04:05:08.055Z,82.90
2018-02-10T04:07:35.689Z,82.61
2018-02-10T04:10:03.281Z,82.67
2018-02-10T04:12:30.838Z,82.65
2018-02-10T04:14:58.406Z,82.59
2018-02-10T04:17:25.973Z,82.47
2018-02-10T04:19:53.800Z,82.51
2018-02-10T04:22:21.355Z,82.54
2018-02-10T04:24:49.138Z,82.58
2018-02-10T04:27:16.723Z,82.77
2018-02-10T04:29:44.278Z,83.23
2018-02-10T04:32:11.841Z,83.68
2018-02-10T04:34:39.397Z,83.22
2018-02-10T04:37:07.001Z,83.03
2018-02-10T04:39:34.563Z,83.03
2018-02-10T04:42:02.122Z,83.00
2018-02-10T04:44:29.707Z,83.13
2018-02-10T04:46:57.394Z,83.01
2018-02-10T04:49:24.957Z,82.83
2018-02-10T04:51:52.513Z,82.55
2018-02-10T04:54:20.328Z,82.78
2018-02-10T04:56:48.067Z,83.33
2018-02-10T04:59:15.760Z,83.05
2018-02-10T05:01:43.317Z,83.26
2018-02-10T05:04:10.902Z,83.69
2018-02-10T05:06:38.465Z,83.54
2018-02-10T05:09:06.025Z,83.13
2018-02-10T05:11:33.629Z,83.03
2018-02-10T05:14:01.392Z,82.51
2018-02-10T05:16:28.954Z,83.29
2018-02-10T05:18:56.521Z,83.96
2018-02-10T05:21:24.253Z,83.69
2018-02-10T05:23:51.809Z,83.53
2018-02-10T05:26:19.581Z,83.44
2018-02-10T05:28:47.193Z,83.36
2018-02-10T05:31:14.778Z,83.58
2018-02-10T05:33:42.340Z,83.40
2018-02-10T05:36:09.905Z,82.88
2018-02-10T05:38:37.470Z,83.39
2018-02-10T05:41:05.307Z,83.77
2018-02-10T05:43:32.909Z,83.21
2018-02-10T05:46:00.725Z,82.85
2018-02-10T05:48:28.442Z,83.06
2018-02-10T05:50:55.989Z,83.25
2018-02-10T05:53:23.545Z,82.97
2018-02-10T05:55:51.298Z,82.97
2018-02-10T05:58:18.913Z,82.95
2018-02-10T06:00:46.633Z,82.71
2018-02-10T06:03:14.222Z,82.43
2018-02-10T06:05:41.969Z,82.44
2018-02-10T06:08:09.689Z,82.34
2018-02-10T06:10:37.249Z,82.22
2018-02-10T06:13:04.813Z,81.61
2018-02-10T06:15:32.379Z,81.23
2018-02-10T06:17:59.970Z,80.95
2018-02-10T06:20:27.883Z,80.58
2018-02-10T06:22:55.455Z,80.50
2018-02-10T06:25:23.213Z,80.77
2018-02-10T06:27:51.040Z,81.78
2018-02-10T06:30:18.609Z,81.13
2018-02-10T06:32:46.214Z,80.76
2018-02-10T06:35:13.986Z,79.87
2018-02-10T06:37:41.597Z,79.79
2018-02-10T06:40:09.148Z,80.17
2018-02-10T06:42:36.709Z,80.24
2018-02-10T06:45:04.280Z,79.97
2018-02-10T06:47:32.075Z,79.56
2018-02-10T06:49:59.641Z,79.50
2018-02-10T06:52:27.192Z,77.89
2018-02-10T06:54:54.871Z,76.23
2018-02-10T06:57:22.436Z,75.09
2018-02-10T06:59:50.027Z,75.36
2018-02-10T07:02:17.883Z,75.26
2018-02-10T07:04:45.600Z,75.21
2018-02-10T07:07:13.165Z,75.05
2018-02-10T07:09:40.731Z,75.36
2018-02-10T07:12:08.555Z,76.02
2018-02-10T07:14:36.145Z,75.81
2018-02-10T07:17:03.752Z,75.50
2018-02-10T07:19:31.325Z,75.46
2018-02-10T07:21:59.866Z,75.55
2018-02-10T07:24:27.441Z,75.70
2018-02-10T07:26:55.165Z,75.61
2018-02-10T07:29:22.984Z,75.47
2018-02-10T07:31:50.797Z,75.36
2018-02-10T07:34:18.361Z,74.62
2018-02-10T07:36:45.923Z,74.59
2018-02-10T07:39:13.757Z,74.13
2018-02-10T07:41:41.350Z,73.99
2018-02-10T07:44:09.092Z,74.16
2018-02-10T07:46:36.703Z,74.30
2018-02-10T07:49:04.257Z,73.88
2018-02-10T07:51:31.814Z,73.64
2018-02-10T07:53:59.394Z,73.58
2018-02-10T07:56:26.993Z,73.37
2018-02-10T07:58:54.561Z,73.24
2018-02-10T08:01:22.149Z,73.36
2018-02-10T08:03:49.937Z,73.22
2018-02-10T08:06:17.501Z,73.00
2018-02-10T08:08:45.274Z,72.98
2018-02-10T08:11:12.874Z,72.67
2018-02-10T08:13:40.429Z,72.12
2018-02-10T08:16:08.517Z,71.95
2018-02-10T08:18:36.890Z,70.78
2018-02-10T08:21:04.618Z,69.68
2018-02-10T08:23:32.274Z,68.77
2018-02-10T08:25:59.986Z,66.28
2018-02-10T08:28:27.610Z,64.19
2018-02-10T08:30:55.228Z,62.67
2018-02-10T08:33:22.793Z,60.62
2018-02-10T08:35:50.461Z,58.70
2018-02-10T08:38:18.066Z,58.42
2018-02-10T08:40:45.908Z,58.70
2018-02-10T08:43:13.467Z,58.30
2018-02-10T08:45:41.038Z,57.66
2018-02-10T08:48:08.652Z,56.73
2018-02-10T08:50:36.271Z,55.53
2018-02-10T08:53:03.876Z,55.78
2018-02-10T08:55:31.769Z,54.47
2018-02-10T08:57:59.321Z,53.66
2018-02-10T09:00:26.885Z,52.54
2018-02-10T09:02:54.459Z,52.85
2018-02-10T09:05:22.030Z,52.97
2018-02-10T09:07:49.695Z,52.42
2018-02-10T09:10:17.317Z,50.10
2018-02-10T09:12:45.333Z,48.44
2018-02-10T09:15:12.901Z,47.02
2018-02-10T09:17:40.645Z,45.55
2018-02-10T09:20:08.303Z,45.05
2018-02-10T09:22:35.862Z,45.76
2018-02-10T09:25:03.612Z,46.38
2018-02-10T09:27:31.244Z,46.37
2018-02-10T09:29:58.897Z,48.65
2018-02-10T09:32:26.589Z,51.29
2018-02-10T09:34:54.152Z,52.54
2018-02-10T09:37:21.728Z,52.91
2018-02-10T09:39:49.318Z,53.32
2018-02-10T09:42:16.893Z,52.24
2018-02-10T09:44:44.453Z,52.87
2018-02-10T09:47:12.082Z,52.86
2018-02-10T09:49:39.623Z,52.79
2018-02-10T09:52:07.428Z,53.91
2018-02-10T09:54:35.248Z,55.31
2018-02-10T09:57:02.865Z,56.96
2018-02-10T09:59:30.465Z,58.29
2018-02-10T10:01:58.092Z,59.41
2018-02-10T10:04:25.919Z,60.62
2018-02-10T10:06:53.742Z,58.96
2018-02-10T10:09:21.297Z,58.68
2018-02-10T10:11:48.838Z,55.99
2018-02-10T10:14:16.591Z,54.85
2018-02-10T10:16:44.170Z,54.41
2018-02-10T10:19:11.895Z,53.13
2018-02-10T10:21:40.063Z,52.75
2018-02-10T10:24:07.627Z,54.63
2018-02-10T10:26:35.383Z,54.39
2018-02-10T10:29:03.051Z,54.23
2018-02-10T10:31:30.918Z,54.51
2018-02-10T10:33:58.738Z,54.47
2018-02-10T10:36:26.457Z,56.16
2018-02-10T10:38:54.179Z,57.11
2018-02-10T10:41:21.996Z,57.88
2018-02-10T10:43:49.738Z,57.95
2018-02-10T10:46:17.530Z,58.93
2018-02-10T10:48:45.250Z,59.45
2018-02-10T10:51:13.058Z,60.16
2018-02-10T10:53:40.676Z,61.08
2018-02-10T10:56:08.282Z,60.90
2018-02-10T10:58:36.121Z,61.02
2018-02-10T11:01:03.702Z,62.21
2018-02-10T11:03:31.274Z,62.97
2018-02-10T11:05:58.834Z,63.82
2018-02-10T11:08:26.401Z,63.22
2018-02-10T11:10:53.964Z,63.01
2018-02-10T11:13:21.828Z,63.31
2018-02-10T11:15:49.521Z,63.60
2018-02-10T11:18:17.121Z,64.54
2018-02-10T11:20:44.697Z,64.97
2018-02-10T11:23:12.376Z,64.97
2018-02-10T11:25:39.937Z,65.57
2018-02-10T11:28:07.512Z,66.06
2018-02-10T11:30:35.172Z,65.24
2018-02-10T11:33:02.758Z,65.50
2018-02-10T11:35:30.335Z,64.72
2018-02-10T11:37:57.899Z,65.25
2018-02-10T11:40:25.454Z,64.88
2018-02-10T11:42:53.018Z,63.68
2018-02-10T11:45:20.577Z,62.95
2018-02-10T11:47:48.231Z,61.92
2018-02-10T11:50:15.824Z,61.32
2018-02-10T11:52:43.506Z,60.95
2018-02-10T11:55:11.331Z,60.71
2018-02-10T11:57:39.059Z,60.59
2018-02-10T12:00:06.709Z,60.61
2018-02-10T12:02:34.276Z,61.74
2018-02-10T12:05:02.006Z,61.91
2018-02-10T12:07:29.573Z,62.75
2018-02-10T12:09:57.258Z,63.47
2018-02-10T12:12:24.826Z,63.11
2018-02-10T12:14:52.405Z,62.22
2018-02-10T12:17:19.980Z,62.35
2018-02-10T12:19:47.563Z,62.41
2018-02-10T12:22:15.137Z,62.33
2018-02-10T12:24:42.707Z,62.76
2018-02-10T12:27:10.465Z,63.20
2018-02-10T12:29:38.122Z,63.44
2018-02-10T12:32:05.901Z,62.90
2018-02-10T12:34:33.449Z,62.81
2018-02-10T12:37:01.033Z,63.32
2018-02-10T12:39:28.727Z,63.18
2018-02-10T12:41:56.305Z,63.31
2018-02-10T12:44:23.857Z,63.81
2018-02-10T12:46:51.477Z,62.92
2018-02-10T12:49:24.641Z,62.92
2018-02-10T12:51:52.409Z,62.78
2018-02-10T12:54:19.960Z,63.26
2018-02-10T12:56:47.699Z,63.50
2018-02-10T12:59:15.276Z,64.17
2018-02-10T13:01:42.830Z,64.61
2018-02-10T13:04:10.652Z,65.27
2018-02-10T13:06:38.250Z,65.24
2018-02-10T13:09:05.887Z,65.53
2018-02-10T13:11:33.607Z,65.50
2018-02-10T13:14:01.425Z,65.41
2018-02-10T13:16:29.005Z,65.56
2018-02-10T13:18:56.652Z,65.24
2018-02-10T13:21:24.224Z,64.76
2018-02-10T13:23:51.802Z,64.50
2018-02-10T13:26:19.500Z,64.85
2018-02-10T13:28:47.118Z,64.98
2018-02-10T13:31:14.711Z,65.28
2018-02-10T13:33:42.294Z,65.03
2018-02-10T13:36:09.853Z,65.32
2018-02-10T13:38:37.603Z,65.92
2018-02-10T13:41:05.423Z,66.75
2018-02-10T13:43:33.241Z,66.83
2018-02-10T13:46:00.798Z,67.05
2018-02-10T13:48:40.193Z,67.30
2018-02-10T13:51:07.797Z,67.08
2018-02-10T13:53:35.375Z,67.17
2018-02-10T13:56:02.976Z,67.35
2018-02-10T13:58:30.790Z,67.41
2018-02-10T14:00:58.608Z,67.33
2018-02-10T14:03:26.427Z,67.55
2018-02-10T14:05:54.245Z,67.78
2018-02-10T14:08:21.875Z,68.28
2018-02-10T14:10:49.561Z,67.89
2018-02-10T14:13:17.130Z,67.51
2018-02-10T14:15:44.921Z,68.04
2018-02-10T14:18:12.738Z,67.97
2018-02-10T14:20:40.568Z,67.95
2018-02-10T14:23:08.336Z,67.71
2018-02-10T14:25:35.923Z,67.67
2018-02-10T14:28:03.514Z,68.01
2018-02-10T14:30:31.326Z,68.40
2018-02-10T14:32:58.886Z,67.62
2018-02-10T14:35:26.655Z,67.42
2018-02-10T14:37:54.387Z,67.48
2018-02-10T14:40:22.201Z,67.77
2018-02-10T14:42:49.746Z,67.55
2018-02-10T14:45:17.535Z,68.27
2018-02-10T14:47:45.145Z,68.52
2018-02-10T14:50:12.972Z,69.19
2018-02-10T14:52:40.567Z,70.10
2018-02-10T14:55:08.165Z,71.85
2018-02-10T14:57:35.892Z,72.12
2018-02-10T15:00:03.517Z,72.96
2018-02-10T15:02:31.405Z,74.93
2018-02-10T15:04:59.095Z,74.25
2018-02-10T15:07:26.653Z,74.05
2018-02-10T15:09:54.499Z,74.51
2018-02-10T15:12:22.069Z,76.00
2018-02-10T15:14:49.629Z,76.58
2018-02-10T15:17:17.194Z,77.91
2018-02-10T15:19:44.989Z,77.95
2018-02-10T15:22:12.808Z,78.33
2018-02-10T15:24:40.370Z,79.39
2018-02-10T15:27:08.013Z,80.30
2018-02-10T15:29:47.550Z,80.61
2018-02-10T15:32:27.017Z,80.16
2018-02-10T15:34:59.698Z,80.25
2018-02-10T15:37:27.276Z,80.84
2018-02-10T15:39:54.913Z,80.37
2018-02-10T15:42:22.544Z,80.19
2018-02-10T15:44:50.151Z,80.67
2018-02-10T15:47:17.864Z,81.41
2018-02-10T15:49:45.806Z,81.15
2018-02-10T15:52:13.429Z,81.58
2018-02-10T15:54:41.247Z,81.72
2018-02-10T15:57:08.834Z,82.20
2018-02-10T15:59:36.390Z,82.12
2018-02-10T16:02:03.986Z,82.54
2018-02-10T16:04:31.714Z,82.20
2018-02-10T16:06:59.532Z,83.42
2018-02-10T16:09:27.250Z,83.41
2018-02-10T16:11:55.178Z,83.72
2018-02-10T16:14:22.779Z,83.87
2018-02-10T16:16:50.333Z,83.08
2018-02-10T16:19:17.898Z,83.20
2018-02-10T16:21:45.703Z,83.48
2018-02-10T16:24:13.469Z,83.47
2018-02-10T16:26:41.024Z,83.43
2018-02-10T16:29:08.716Z,83.72
2018-02-10T16:31:36.277Z,83.39
2018-02-10T16:34:03.842Z,83.36
2018-02-10T16:36:31.514Z,84.02
2018-02-10T16:38:59.070Z,84.08
2018-02-10T16:41:26.669Z,83.52
2018-02-10T16:43:54.233Z,83.60
2018-02-10T16:46:21.861Z,83.31
2018-02-10T16:48:49.484Z,83.09
2018-02-10T16:51:17.041Z,83.10
2018-02-10T16:53:44.835Z,83.93
2018-02-10T16:56:12.653Z,83.70
2018-02-10T16:58:40.372Z,83.43
2018-02-10T17:01:07.950Z,83.74
2018-02-10T17:03:35.501Z,84.16
2018-02-10T17:06:03.227Z,83.66
2018-02-10T17:08:31.045Z,83.71
2018-02-10T17:10:58.867Z,82.71
2018-02-10T17:13:26.760Z,83.45
2018-02-10T17:15:54.344Z,83.59
2018-02-10T17:18:22.108Z,83.71
2018-02-10T17:20:49.670Z,84.50
2018-02-10T17:23:17.454Z,82.80
2018-02-10T17:25:45.163Z,82.92
2018-02-10T17:28:12.725Z,82.34
2018-02-10T17:30:40.398Z,82.71
2018-02-10T17:33:08.090Z,81.97
2018-02-10T17:35:35.697Z,81.44
2018-02-10T17:38:03.267Z,80.77
2018-02-10T17:40:30.939Z,80.69
2018-02-10T17:42:58.505Z,80.14
2018-02-10T17:45:26.104Z,79.97
2018-02-10T17:47:53.934Z,80.08
2018-02-10T17:50:21.486Z,79.51
2018-02-10T17:52:49.470Z,77.50
2018-02-10T17:55:17.058Z,79.12
2018-02-10T17:57:44.642Z,79.58
2018-02-10T18:00:12.218Z,79.86
2018-02-10T18:02:39.799Z,78.95
2018-02-10T18:05:07.367Z,79.68
2018-02-10T18:07:34.950Z,79.24
2018-02-10T18:10:02.613Z,79.26
2018-02-10T18:12:30.173Z,78.45
2018-02-10T18:14:57.731Z,76.62
2018-02-10T18:17:25.299Z,75.52
2018-02-10T18:19:53.025Z,75.96
2018-02-10T18:22:20.612Z,76.26
2018-02-10T18:24:48.180Z,75.73
2018-02-10T18:27:16.747Z,76.52
2018-02-10T18:29:44.307Z,75.75
2018-02-10T18:32:11.863Z,75.82
2018-02-10T18:34:39.438Z,75.77
2018-02-10T18:37:07.120Z,75.64
2018-02-10T18:39:34.745Z,75.53
2018-02-10T18:42:02.664Z,75.44
2018-02-10T18:44:30.640Z,75.50
2018-02-10T18:46:58.386Z,75.47
2018-02-10T18:49:26.048Z,75.18
2018-02-10T18:51:53.906Z,75.68
2018-02-10T18:54:21.469Z,74.76
2018-02-10T18:56:49.080Z,74.99
2018-02-10T18:59:16.630Z,74.54
2018-02-10T19:01:44.183Z,74.39
2018-02-10T19:04:11.768Z,75.18
2018-02-10T19:06:39.335Z,74.50
2018-02-10T19:09:07.204Z,74.43
2018-02-10T19:11:34.917Z,74.29
2018-02-10T19:14:02.593Z,74.69
2018-02-10T19:16:30.345Z,74.61
2018-02-10T19:18:57.890Z,74.67
2018-02-10T19:21:25.578Z,74.30
2018-02-10T19:23:53.707Z,74.08
2018-02-10T19:26:23.702Z,74.52
2018-02-10T19:28:52.003Z,74.88
2018-02-10T19:31:19.710Z,75.10
2018-02-10T19:33:47.548Z,74.57
2018-02-10T19:36:15.379Z,74.11
2018-02-10T19:38:43.105Z,74.17
2018-02-10T19:41:10.719Z,74.46
2018-02-10T19:43:38.596Z,74.10
2018-02-10T19:46:06.353Z,73.70
2018-02-10T19:48:34.235Z,74.03
2018-02-10T19:51:02.350Z,73.85
2018-02-10T19:53:30.226Z,73.96
2018-02-10T19:55:58.028Z,74.77
2018-02-10T19:58:25.912Z,74.23
2018-02-10T20:00:53.670Z,74.40
2018-02-10T20:03:21.226Z,74.32
2018-02-10T20:05:48.798Z,74.34
2018-02-10T20:08:16.567Z,74.13
2018-02-10T20:10:44.137Z,74.04
2018-02-10T20:13:11.756Z,73.60
2018-02-10T20:15:39.353Z,73.50
2018-02-10T20:18:07.154Z,73.64
2018-02-10T20:20:34.886Z,72.86
2018-02-10T20:23:02.527Z,72.95
2018-02-10T20:25:30.093Z,73.03
2018-02-10T20:27:57.667Z,73.08
2018-02-10T20:30:25.571Z,72.76
2018-02-10T20:32:53.173Z,72.96
2018-02-10T20:35:20.723Z,73.84
2018-02-10T20:37:48.291Z,74.43
2018-02-10T20:40:15.942Z,73.78
2018-02-10T20:42:43.547Z,74.01
2018-02-10T20:45:11.136Z,74.45
2018-02-10T20:47:39.005Z,75.16
2018-02-10T20:50:06.724Z,75.38
2018-02-10T20:52:34.281Z,75.37
2018-02-10T20:55:01.845Z,75.87
2018-02-10T20:57:29.397Z,75.33
2018-02-10T20:59:57.195Z,76.17
2018-02-10T21:02:24.786Z,76.00
2018-02-10T21:04:52.606Z,77.18
2018-02-10T21:07:20.247Z,76.60
2018-02-10T21:09:47.816Z,77.25
2018-02-10T21:12:15.475Z,77.08
2018-02-10T21:14:43.041Z,77.07
2018-02-10T21:17:10.601Z,77.47
2018-02-10T21:19:38.158Z,78.20
2018-02-10T21:22:05.968Z,77.99
2018-02-10T21:24:33.775Z,78.11
2018-02-10T21:27:01.494Z,77.78
2018-02-10T21:29:29.071Z,78.42
2018-02-10T21:31:56.626Z,77.31
2018-02-10T21:34:24.190Z,78.55
2018-02-10T21:36:51.745Z,78.65
2018-02-10T21:39:19.397Z,79.12
2018-02-10T21:41:47.205Z,79.07
2018-02-10T21:44:14.782Z,77.73
2018-02-10T21:46:43.340Z,79.38
2018-02-10T21:49:11.074Z,78.76
2018-02-10T21:51:38.976Z,80.04
2018-02-10T21:54:06.538Z,80.32
2018-02-10T21:56:34.150Z,79.90
2018-02-10T21:59:01.912Z,81.03
2018-02-10T22:01:29.471Z,81.78
2018-02-10T22:03:57.244Z,81.13
2018-02-10T22:06:24.797Z,81.21
2018-02-10T22:08:52.357Z,82.01
2018-02-10T22:11:19.899Z,82.11
2018-02-10T22:13:47.506Z,81.98
2018-02-10T22:16:15.226Z,81.28
2018-02-10T22:18:42.864Z,82.36
2018-02-10T22:21:10.692Z,82.39
2018-02-10T22:23:38.263Z,82.85
2018-02-10T22:26:05.874Z,82.88
2018-02-10T22:28:33.652Z,83.25
2018-02-10T22:31:01.466Z,82.94
2018-02-10T22:33:29.069Z,83.72
2018-02-10T22:35:56.640Z,83.68
2018-02-10T22:38:24.187Z,84.33
2018-02-10T22:40:51.911Z,82.83
2018-02-10T22:43:19.522Z,83.61
2018-02-10T22:45:47.272Z,83.91
2018-02-10T22:48:18.703Z,83.49
2018-02-10T22:50:46.265Z,83.89
2018-02-10T22:53:13.823Z,84.23
2018-02-10T22:55:41.556Z,83.71
2018-02-10T22:58:09.154Z,84.24
2018-02-10T23:00:36.779Z,84.23
2018-02-10T23:03:04.513Z,84.01
2018-02-10T23:05:32.051Z,84.17
2018-02-10T23:07:59.613Z,84.64
2018-02-10T23:10:27.364Z,84.60
2018-02-10T23:12:54.910Z,84.19
2018-02-10T23:15:22.702Z,84.16
2018-02-10T23:17:50.518Z,85.59
2018-02-10T23:20:18.114Z,84.95
2018-02-10T23:22:45.835Z,85.85
2018-02-10T23:25:13.553Z,85.76
2018-02-10T23:27:41.109Z,85.71
2018-02-10T23:30:08.677Z,86.16
2018-02-10T23:32:36.237Z,85.89
2018-02-10T23:35:04.044Z,85.92
2018-02-10T23:37:31.657Z,86.16
2018-02-10T23:39:59.223Z,86.30
2018-02-10T23:42:26.922Z,85.74
2018-02-10T23:44:54.716Z,85.42
2018-02-10T23:47:22.283Z,85.95
2018-02-10T23:49:49.833Z,85.47
2018-02-10T23:52:19.282Z,86.17
2018-02-10T23:54:46.834Z,86.21
2018-02-10T23:57:14.390Z,86.42
2018-02-10T23:59:41.957Z,86.44
